sensor_id;sensor_type;location;lat;lon;timestamp;temperature;humidity
9768;DHT22;4923;52.520;13.494;2022-11-20T00:01:22;2.00;99.90
9768;DHT22;4923;52.520;13.494;2022-11-20T00:04:11;2.00;99.90
9768;DHT22;4923;52.520;13.494;2022-11-20T00:06:58;2.00;99.90
9768;DHT22;4923;52.520;13.494;2022-11-20T00:09:47;2.00;99.90
9768;DHT22;4923;52.520;13.494;2022-11-20T00:12:34;2.10;99.90
9768;DHT22;4923;52.520;13.494;2022-11-20T00:15:22;2.00;99.90
9768;DHT22;4923;52.520;13.494;2022-11-20T00:18:09;1.90;99.90
9768;DHT22;4923;52.520;13.494;2022-11-20T00:21:02;1.90;99.90
9768;DHT22;4923;52.520;13.494;2022-11-20T00:23:50;1.90;99.90
9768;DHT22;4923;52.520;13.494;2022-11-20T00:26:38;1.80;99.90
9768;DHT22;4923;52.520;13.494;2022-11-20T00:29:26;1.80;99.90
9768;DHT22;4923;52.520;13.494;2022-11-20T00:32:13;1.80;99.90
9768;DHT22;4923;52.520;13.494;2022-11-20T00:35:00;1.80;99.90
9768;DHT22;4923;52.520;13.494;2022-11-20T00:37:48;1.80;99.90
9768;DHT22;4923;52.520;13.494;2022-11-20T00:40:35;1.80;99.90
9768;DHT22;4923;52.520;13.494;2022-11-20T00:43:22;1.80;99.90
9768;DHT22;4923;52.520;13.494;2022-11-20T00:46:12;1.90;99.90
9768;DHT22;4923;52.520;13.494;2022-11-20T00:49:00;1.80;99.90
9768;DHT22;4923;52.520;13.494;2022-11-20T00:51:47;1.80;99.90
9768;DHT22;4923;52.520;13.494;2022-11-20T00:54:35;1.80;99.90
9768;DHT22;4923;52.520;13.494;2022-11-20T00:57:23;1.80;99.90
9768;DHT22;4923;52.520;13.494;2022-11-20T01:00:11;1.80;99.90
9768;DHT22;4923;52.520;13.494;2022-11-20T01:02:58;1.80;99.90
9768;DHT22;4923;52.520;13.494;2022-11-20T01:05:47;1.80;99.90
9768;DHT22;4923;52.520;13.494;2022-11-20T01:08:36;1.80;99.90
9768;DHT22;4923;52.520;13.494;2022-11-20T01:11:28;1.80;99.90
9768;DHT22;4923;52.520;13.494;2022-11-20T01:14:17;1.80;99.90
9768;DHT22;4923;52.520;13.494;2022-11-20T01:17:05;1.80;99.90
9768;DHT22;4923;52.520;13.494;2022-11-20T01:19:52;1.80;99.90
9768;DHT22;4923;52.520;13.494;2022-11-20T01:22:39;1.90;99.90
9768;DHT22;4923;52.520;13.494;2022-11-20T01:25:26;1.90;99.90
9768;DHT22;4923;52.520;13.494;2022-11-20T01:28:15;2.00;99.90
9768;DHT22;4923;52.520;13.494;2022-11-20T01:31:11;1.90;99.90
9768;DHT22;4923;52.520;13.494;2022-11-20T01:34:01;2.00;99.90
9768;DHT22;4923;52.520;13.494;2022-11-20T01:36:49;1.90;99.90
9768;DHT22;4923;52.520;13.494;2022-11-20T01:39:37;1.90;99.90
9768;DHT22;4923;52.520;13.494;2022-11-20T01:42:23;1.80;99.90
9768;DHT22;4923;52.520;13.494;2022-11-20T01:46:08;1.90;99.90
9768;DHT22;4923;52.520;13.494;2022-11-20T01:49:17;1.90;99.90
9768;DHT22;4923;52.520;13.494;2022-11-20T01:52:12;1.90;99.90
9768;DHT22;4923;52.520;13.494;2022-11-20T01:55:05;1.90;99.90
9768;DHT22;4923;52.520;13.494;2022-11-20T01:57:54;1.90;99.90
9768;DHT22;4923;52.520;13.494;2022-11-20T02:00:42;1.90;99.90
9768;DHT22;4923;52.520;13.494;2022-11-20T02:03:31;1.90;99.90
9768;DHT22;4923;52.520;13.494;2022-11-20T02:06:23;1.90;99.90
9768;DHT22;4923;52.520;13.494;2022-11-20T02:09:12;1.80;99.90
9768;DHT22;4923;52.520;13.494;2022-11-20T02:11:59;1.80;99.90
9768;DHT22;4923;52.520;13.494;2022-11-20T02:14:47;1.80;99.90
9768;DHT22;4923;52.520;13.494;2022-11-20T02:17:33;1.80;99.90
9768;DHT22;4923;52.520;13.494;2022-11-20T02:20:21;1.80;99.90
9768;DHT22;4923;52.520;13.494;2022-11-20T02:23:12;1.70;99.90
9768;DHT22;4923;52.520;13.494;2022-11-20T02:26:02;1.70;99.90
9768;DHT22;4923;52.520;13.494;2022-11-20T02:28:51;1.70;99.90
9768;DHT22;4923;52.520;13.494;2022-11-20T02:31:41;1.70;99.90
9768;DHT22;4923;52.520;13.494;2022-11-20T02:34:29;1.70;99.90
9768;DHT22;4923;52.520;13.494;2022-11-20T02:37:16;1.70;99.90
9768;DHT22;4923;52.520;13.494;2022-11-20T02:40:04;1.60;99.90
9768;DHT22;4923;52.520;13.494;2022-11-20T02:42:53;1.60;99.90
9768;DHT22;4923;52.520;13.494;2022-11-20T02:45:40;1.60;99.90
9768;DHT22;4923;52.520;13.494;2022-11-20T02:48:27;1.60;99.90
9768;DHT22;4923;52.520;13.494;2022-11-20T02:51:14;1.70;99.90
9768;DHT22;4923;52.520;13.494;2022-11-20T02:54:01;1.70;99.90
9768;DHT22;4923;52.520;13.494;2022-11-20T02:56:48;1.60;99.90
9768;DHT22;4923;52.520;13.494;2022-11-20T02:59:36;1.70;99.90
9768;DHT22;4923;52.520;13.494;2022-11-20T03:02:23;1.60;99.90
9768;DHT22;4923;52.520;13.494;2022-11-20T03:05:10;1.60;99.90
9768;DHT22;4923;52.520;13.494;2022-11-20T03:07:57;1.60;99.90
9768;DHT22;4923;52.520;13.494;2022-11-20T03:10:45;1.60;99.90
9768;DHT22;4923;52.520;13.494;2022-11-20T03:13:32;1.60;99.10
9768;DHT22;4923;52.520;13.494;2022-11-20T03:16:22;1.60;97.10
9768;DHT22;4923;52.520;13.494;2022-11-20T03:19:09;1.70;98.10
9768;DHT22;4923;52.520;13.494;2022-11-20T03:21:56;1.70;98.90
9768;DHT22;4923;52.520;13.494;2022-11-20T03:24:43;1.80;98.90
9768;DHT22;4923;52.520;13.494;2022-11-20T03:27:32;1.80;98.00
9768;DHT22;4923;52.520;13.494;2022-11-20T03:30:20;1.70;93.10
9768;DHT22;4923;52.520;13.494;2022-11-20T03:33:08;1.60;62.80
9768;DHT22;4923;52.520;13.494;2022-11-20T03:36:00;1.60;58.60
9768;DHT22;4923;52.520;13.494;2022-11-20T03:38:49;1.60;59.20
9768;DHT22;4923;52.520;13.494;2022-11-20T03:41:38;1.60;57.10
9768;DHT22;4923;52.520;13.494;2022-11-20T03:44:25;1.60;55.90
9768;DHT22;4923;52.520;13.494;2022-11-20T03:47:12;1.60;56.50
9768;DHT22;4923;52.520;13.494;2022-11-20T03:50:00;1.60;55.30
9768;DHT22;4923;52.520;13.494;2022-11-20T03:52:47;1.60;54.20
9768;DHT22;4923;52.520;13.494;2022-11-20T03:55:34;1.60;57.60
9768;DHT22;4923;52.520;13.494;2022-11-20T03:58:21;1.70;60.40
9768;DHT22;4923;52.520;13.494;2022-11-20T04:01:10;1.60;57.30
9768;DHT22;4923;52.520;13.494;2022-11-20T04:03:57;1.60;57.80
9768;DHT22;4923;52.520;13.494;2022-11-20T04:06:45;1.60;57.90
9768;DHT22;4923;52.520;13.494;2022-11-20T04:09:32;1.60;58.00
9768;DHT22;4923;52.520;13.494;2022-11-20T04:12:19;1.60;54.00
9768;DHT22;4923;52.520;13.494;2022-11-20T04:15:07;1.60;51.10
9768;DHT22;4923;52.520;13.494;2022-11-20T04:17:54;1.60;49.40
9768;DHT22;4923;52.520;13.494;2022-11-20T04:20:41;1.60;47.50
9768;DHT22;4923;52.520;13.494;2022-11-20T04:23:29;1.60;43.40
9768;DHT22;4923;52.520;13.494;2022-11-20T04:26:17;1.50;35.20
9768;DHT22;4923;52.520;13.494;2022-11-20T04:29:04;1.40;27.20
9768;DHT22;4923;52.520;13.494;2022-11-20T04:31:51;1.40;22.80
9768;DHT22;4923;52.520;13.494;2022-11-20T04:34:38;1.40;25.20
9768;DHT22;4923;52.520;13.494;2022-11-20T04:37:25;1.40;26.90
9768;DHT22;4923;52.520;13.494;2022-11-20T04:40:13;1.40;25.50
9768;DHT22;4923;52.520;13.494;2022-11-20T04:43:00;1.30;25.20
9768;DHT22;4923;52.520;13.494;2022-11-20T04:45:50;1.30;25.60
9768;DHT22;4923;52.520;13.494;2022-11-20T04:48:37;1.20;24.40
9768;DHT22;4923;52.520;13.494;2022-11-20T04:51:24;1.20;22.60
9768;DHT22;4923;52.520;13.494;2022-11-20T04:54:11;1.10;19.30
9768;DHT22;4923;52.520;13.494;2022-11-20T04:56:59;1.10;41.20
9768;DHT22;4923;52.520;13.494;2022-11-20T04:59:46;1.10;19.40
9768;DHT22;4923;52.520;13.494;2022-11-20T05:02:33;1.10;22.40
9768;DHT22;4923;52.520;13.494;2022-11-20T05:05:20;1.00;21.20
9768;DHT22;4923;52.520;13.494;2022-11-20T05:08:07;1.00;44.90
9768;DHT22;4923;52.520;13.494;2022-11-20T05:10:59;0.90;24.20
9768;DHT22;4923;52.520;13.494;2022-11-20T05:13:48;0.90;24.60
9768;DHT22;4923;52.520;13.494;2022-11-20T05:16:35;1.00;29.90
9768;DHT22;4923;52.520;13.494;2022-11-20T05:19:22;1.00;35.80
9768;DHT22;4923;52.520;13.494;2022-11-20T05:22:09;1.00;39.80
9768;DHT22;4923;52.520;13.494;2022-11-20T05:24:56;1.00;45.10
9768;DHT22;4923;52.520;13.494;2022-11-20T05:27:43;1.00;48.40
9768;DHT22;4923;52.520;13.494;2022-11-20T05:30:31;1.00;50.50
9768;DHT22;4923;52.520;13.494;2022-11-20T05:33:18;1.00;52.10
9768;DHT22;4923;52.520;13.494;2022-11-20T05:36:06;1.10;54.40
9768;DHT22;4923;52.520;13.494;2022-11-20T05:38:53;1.20;58.80
9768;DHT22;4923;52.520;13.494;2022-11-20T05:41:40;1.20;62.30
9768;DHT22;4923;52.520;13.494;2022-11-20T05:44:27;1.10;63.80
9768;DHT22;4923;52.520;13.494;2022-11-20T05:47:16;1.10;63.00
9768;DHT22;4923;52.520;13.494;2022-11-20T05:50:04;1.10;64.30
9768;DHT22;4923;52.520;13.494;2022-11-20T05:52:51;1.10;64.50
9768;DHT22;4923;52.520;13.494;2022-11-20T05:55:38;1.20;64.50
9768;DHT22;4923;52.520;13.494;2022-11-20T05:58:25;1.20;63.60
9768;DHT22;4923;52.520;13.494;2022-11-20T06:01:13;1.20;67.60
9768;DHT22;4923;52.520;13.494;2022-11-20T06:04:02;1.10;64.00
9768;DHT22;4923;52.520;13.494;2022-11-20T06:06:49;1.10;63.90
9768;DHT22;4923;52.520;13.494;2022-11-20T06:09:36;1.10;63.00
9768;DHT22;4923;52.520;13.494;2022-11-20T06:12:23;1.10;60.20
9768;DHT22;4923;52.520;13.494;2022-11-20T06:15:11;1.10;59.40
9768;DHT22;4923;52.520;13.494;2022-11-20T06:17:58;1.10;62.80
9768;DHT22;4923;52.520;13.494;2022-11-20T06:20:48;1.10;65.00
9768;DHT22;4923;52.520;13.494;2022-11-20T06:23:38;1.00;67.10
9768;DHT22;4923;52.520;13.494;2022-11-20T06:26:26;1.10;65.70
9768;DHT22;4923;52.520;13.494;2022-11-20T06:29:16;1.10;70.80
9768;DHT22;4923;52.520;13.494;2022-11-20T06:32:04;1.10;74.40
9768;DHT22;4923;52.520;13.494;2022-11-20T06:34:55;1.10;76.60
9768;DHT22;4923;52.520;13.494;2022-11-20T06:37:43;1.10;79.40
9768;DHT22;4923;52.520;13.494;2022-11-20T06:40:30;1.20;88.00
9768;DHT22;4923;52.520;13.494;2022-11-20T06:43:18;1.20;85.90
9768;DHT22;4923;52.520;13.494;2022-11-20T06:46:05;1.20;91.40
9768;DHT22;4923;52.520;13.494;2022-11-20T06:48:52;1.20;88.20
9768;DHT22;4923;52.520;13.494;2022-11-20T06:51:39;1.10;85.20
9768;DHT22;4923;52.520;13.494;2022-11-20T06:54:27;1.20;86.50
9768;DHT22;4923;52.520;13.494;2022-11-20T06:57:14;1.20;84.50
9768;DHT22;4923;52.520;13.494;2022-11-20T07:00:02;1.20;83.70
9768;DHT22;4923;52.520;13.494;2022-11-20T07:02:49;1.20;77.90
9768;DHT22;4923;52.520;13.494;2022-11-20T07:05:36;1.10;71.00
9768;DHT22;4923;52.520;13.494;2022-11-20T07:08:25;1.20;65.20
9768;DHT22;4923;52.520;13.494;2022-11-20T07:11:13;1.20;62.70
9768;DHT22;4923;52.520;13.494;2022-11-20T07:14:00;1.20;55.40
9768;DHT22;4923;52.520;13.494;2022-11-20T07:16:47;1.20;49.30
9768;DHT22;4923;52.520;13.494;2022-11-20T07:19:34;1.20;43.50
9768;DHT22;4923;52.520;13.494;2022-11-20T07:22:21;1.20;36.10
9768;DHT22;4923;52.520;13.494;2022-11-20T07:25:09;1.20;30.70
9768;DHT22;4923;52.520;13.494;2022-11-20T07:27:58;1.30;29.60
9768;DHT22;4923;52.520;13.494;2022-11-20T07:30:50;1.30;26.80
9768;DHT22;4923;52.520;13.494;2022-11-20T07:33:37;1.30;25.40
9768;DHT22;4923;52.520;13.494;2022-11-20T07:36:30;1.40;24.70
9768;DHT22;4923;52.520;13.494;2022-11-20T07:39:18;1.40;24.10
9768;DHT22;4923;52.520;13.494;2022-11-20T07:42:06;1.50;22.80
9768;DHT22;4923;52.520;13.494;2022-11-20T07:44:55;1.50;18.50
9768;DHT22;4923;52.520;13.494;2022-11-20T07:47:42;1.60;12.30
9768;DHT22;4923;52.520;13.494;2022-11-20T07:50:29;1.60;4.70
9768;DHT22;4923;52.520;13.494;2022-11-20T07:53:16;1.70;1.80
9768;DHT22;4923;52.520;13.494;2022-11-20T07:56:07;1.70;1.00
9768;DHT22;4923;52.520;13.494;2022-11-20T07:58:54;1.70;1.00
9768;DHT22;4923;52.520;13.494;2022-11-20T08:01:43;1.60;1.00
9768;DHT22;4923;52.520;13.494;2022-11-20T08:04:30;1.70;1.00
9768;DHT22;4923;52.520;13.494;2022-11-20T08:07:19;1.80;1.00
9768;DHT22;4923;52.520;13.494;2022-11-20T08:10:08;1.80;1.00
9768;DHT22;4923;52.520;13.494;2022-11-20T08:12:55;1.80;1.00
9768;DHT22;4923;52.520;13.494;2022-11-20T08:16:00;1.80;1.00
9768;DHT22;4923;52.520;13.494;2022-11-20T08:18:48;1.90;1.00
9768;DHT22;4923;52.520;13.494;2022-11-20T08:21:35;2.10;1.00
9768;DHT22;4923;52.520;13.494;2022-11-20T08:24:29;2.00;1.00
9768;DHT22;4923;52.520;13.494;2022-11-20T08:27:17;2.00;1.00
9768;DHT22;4923;52.520;13.494;2022-11-20T08:30:06;2.00;1.00
9768;DHT22;4923;52.520;13.494;2022-11-20T08:32:54;2.00;1.00
9768;DHT22;4923;52.520;13.494;2022-11-20T08:35:42;2.10;1.00
9768;DHT22;4923;52.520;13.494;2022-11-20T08:38:30;2.10;1.00
9768;DHT22;4923;52.520;13.494;2022-11-20T08:41:18;2.20;1.00
9768;DHT22;4923;52.520;13.494;2022-11-20T08:44:13;2.20;1.00
9768;DHT22;4923;52.520;13.494;2022-11-20T08:47:00;2.20;1.00
9768;DHT22;4923;52.520;13.494;2022-11-20T08:49:47;2.20;1.00
9768;DHT22;4923;52.520;13.494;2022-11-20T08:52:36;2.10;1.00
9768;DHT22;4923;52.520;13.494;2022-11-20T08:55:23;2.20;1.00
9768;DHT22;4923;52.520;13.494;2022-11-20T08:58:10;2.20;1.00
9768;DHT22;4923;52.520;13.494;2022-11-20T09:00:57;2.30;1.00
9768;DHT22;4923;52.520;13.494;2022-11-20T09:03:44;2.40;1.00
9768;DHT22;4923;52.520;13.494;2022-11-20T09:06:31;2.50;1.00
9768;DHT22;4923;52.520;13.494;2022-11-20T09:09:20;2.60;1.00
9768;DHT22;4923;52.520;13.494;2022-11-20T09:12:07;2.60;1.00
9768;DHT22;4923;52.520;13.494;2022-11-20T09:14:54;2.60;1.00
9768;DHT22;4923;52.520;13.494;2022-11-20T09:17:42;2.50;1.00
9768;DHT22;4923;52.520;13.494;2022-11-20T09:20:40;2.50;1.00
9768;DHT22;4923;52.520;13.494;2022-11-20T09:23:31;2.50;1.00
9768;DHT22;4923;52.520;13.494;2022-11-20T09:26:21;2.50;1.00
9768;DHT22;4923;52.520;13.494;2022-11-20T09:29:08;2.50;1.00
9768;DHT22;4923;52.520;13.494;2022-11-20T09:31:58;2.50;1.00
9768;DHT22;4923;52.520;13.494;2022-11-20T09:34:47;2.50;1.00
9768;DHT22;4923;52.520;13.494;2022-11-20T09:37:34;2.50;1.00
9768;DHT22;4923;52.520;13.494;2022-11-20T09:40:23;5.60;20.20
9768;DHT22;4923;52.520;13.494;2022-11-20T09:43:17;8.00;99.90
9768;DHT22;4923;52.520;13.494;2022-11-20T09:46:09;9.30;99.90
9768;DHT22;4923;52.520;13.494;2022-11-20T09:49:14;9.40;1.00
9768;DHT22;4923;52.520;13.494;2022-11-20T09:52:14;8.00;1.00
9768;DHT22;4923;52.520;13.494;2022-11-20T09:55:09;6.80;1.00
9768;DHT22;4923;52.520;13.494;2022-11-20T09:57:57;5.90;1.00
9768;DHT22;4923;52.520;13.494;2022-11-20T10:00:47;5.30;1.00
9768;DHT22;4923;52.520;13.494;2022-11-20T10:03:39;4.80;1.00
9768;DHT22;4923;52.520;13.494;2022-11-20T10:06:30;4.50;1.00
9768;DHT22;4923;52.520;13.494;2022-11-20T10:09:22;3.70;1.00
9768;DHT22;4923;52.520;13.494;2022-11-20T10:12:18;3.70;1.00
9768;DHT22;4923;52.520;13.494;2022-11-20T10:15:14;3.20;1.00
9768;DHT22;4923;52.520;13.494;2022-11-20T10:18:11;3.40;1.00
9768;DHT22;4923;52.520;13.494;2022-11-20T10:21:11;3.50;1.00
9768;DHT22;4923;52.520;13.494;2022-11-20T10:27:47;3.30;1.00
9768;DHT22;4923;52.520;13.494;2022-11-20T10:30:42;3.50;1.00
9768;DHT22;4923;52.520;13.494;2022-11-20T10:33:35;3.40;1.00
9768;DHT22;4923;52.520;13.494;2022-11-20T10:36:25;3.40;1.00
9768;DHT22;4923;52.520;13.494;2022-11-20T10:39:18;3.30;1.00
9768;DHT22;4923;52.520;13.494;2022-11-20T10:42:10;3.20;1.00
9768;DHT22;4923;52.520;13.494;2022-11-20T10:45:13;3.30;1.00
9768;DHT22;4923;52.520;13.494;2022-11-20T10:48:14;3.30;1.00
9768;DHT22;4923;52.520;13.494;2022-11-20T10:51:12;3.30;1.00
9768;DHT22;4923;52.520;13.494;2022-11-20T10:54:09;3.50;1.00
9768;DHT22;4923;52.520;13.494;2022-11-20T10:57:06;3.50;1.00
9768;DHT22;4923;52.520;13.494;2022-11-20T11:00:03;3.50;1.00
9768;DHT22;4923;52.520;13.494;2022-11-20T11:02:52;3.50;1.00
9768;DHT22;4923;52.520;13.494;2022-11-20T11:05:48;3.60;1.00
9768;DHT22;4923;52.520;13.494;2022-11-20T11:08:39;3.80;1.00
9768;DHT22;4923;52.520;13.494;2022-11-20T11:11:28;4.00;1.00
9768;DHT22;4923;52.520;13.494;2022-11-20T11:14:17;4.00;1.00
9768;DHT22;4923;52.520;13.494;2022-11-20T11:17:04;3.90;1.00
9768;DHT22;4923;52.520;13.494;2022-11-20T11:20:05;4.40;1.00
9768;DHT22;4923;52.520;13.494;2022-11-20T11:22:55;4.70;1.00
9768;DHT22;4923;52.520;13.494;2022-11-20T11:26:05;4.50;1.00
9768;DHT22;4923;52.520;13.494;2022-11-20T11:28:54;4.40;1.00
9768;DHT22;4923;52.520;13.494;2022-11-20T11:31:42;4.50;1.00
9768;DHT22;4923;52.520;13.494;2022-11-20T11:34:29;4.60;1.00
9768;DHT22;4923;52.520;13.494;2022-11-20T11:37:20;4.40;1.00
9768;DHT22;4923;52.520;13.494;2022-11-20T11:40:11;4.40;1.00
9768;DHT22;4923;52.520;13.494;2022-11-20T11:43:04;4.50;1.00
9768;DHT22;4923;52.520;13.494;2022-11-20T11:46:25;4.30;1.00
9768;DHT22;4923;52.520;13.494;2022-11-20T11:49:17;4.40;1.00
9768;DHT22;4923;52.520;13.494;2022-11-20T11:52:17;4.30;1.00
9768;DHT22;4923;52.520;13.494;2022-11-20T11:55:07;4.20;1.00
9768;DHT22;4923;52.520;13.494;2022-11-20T11:58:09;4.10;1.00
9768;DHT22;4923;52.520;13.494;2022-11-20T12:01:02;4.10;1.00
9768;DHT22;4923;52.520;13.494;2022-11-20T12:03:57;4.00;1.00
9768;DHT22;4923;52.520;13.494;2022-11-20T12:06:51;3.90;1.00
9768;DHT22;4923;52.520;13.494;2022-11-20T12:09:46;3.60;1.00
9768;DHT22;4923;52.520;13.494;2022-11-20T12:12:37;3.50;1.00
9768;DHT22;4923;52.520;13.494;2022-11-20T12:15:33;3.30;1.00
9768;DHT22;4923;52.520;13.494;2022-11-20T12:18:25;3.20;1.00
9768;DHT22;4923;52.520;13.494;2022-11-20T12:21:19;3.10;1.00
9768;DHT22;4923;52.520;13.494;2022-11-20T12:24:25;3.10;1.00
9768;DHT22;4923;52.520;13.494;2022-11-20T12:27:36;3.20;1.00
9768;DHT22;4923;52.520;13.494;2022-11-20T12:30:27;3.30;1.00
9768;DHT22;4923;52.520;13.494;2022-11-20T12:33:28;3.40;1.00
9768;DHT22;4923;52.520;13.494;2022-11-20T12:36:27;3.30;1.00
9768;DHT22;4923;52.520;13.494;2022-11-20T12:39:25;3.30;1.00
9768;DHT22;4923;52.520;13.494;2022-11-20T12:42:31;3.30;1.00
9768;DHT22;4923;52.520;13.494;2022-11-20T12:45:50;3.10;1.00
9768;DHT22;4923;52.520;13.494;2022-11-20T12:49:03;3.00;1.00
9768;DHT22;4923;52.520;13.494;2022-11-20T12:52:15;3.00;1.00
9768;DHT22;4923;52.520;13.494;2022-11-20T12:55:16;3.00;1.00
9768;DHT22;4923;52.520;13.494;2022-11-20T12:58:16;2.90;1.00
9768;DHT22;4923;52.520;13.494;2022-11-20T13:01:12;2.90;1.00
9768;DHT22;4923;52.520;13.494;2022-11-20T13:04:39;2.80;1.00
9768;DHT22;4923;52.520;13.494;2022-11-20T13:07:33;2.80;1.00
9768;DHT22;4923;52.520;13.494;2022-11-20T13:10:27;2.80;1.00
9768;DHT22;4923;52.520;13.494;2022-11-20T13:13:23;2.80;1.00
9768;DHT22;4923;52.520;13.494;2022-11-20T13:16:16;2.90;1.00
9768;DHT22;4923;52.520;13.494;2022-11-20T13:19:10;2.90;1.00
9768;DHT22;4923;52.520;13.494;2022-11-20T13:21:59;3.00;1.00
9768;DHT22;4923;52.520;13.494;2022-11-20T13:24:50;3.00;1.00
9768;DHT22;4923;52.520;13.494;2022-11-20T13:27:47;3.10;1.00
9768;DHT22;4923;52.520;13.494;2022-11-20T13:30:35;3.10;1.00
9768;DHT22;4923;52.520;13.494;2022-11-20T13:33:27;3.20;1.00
9768;DHT22;4923;52.520;13.494;2022-11-20T13:36:22;3.20;1.00
9768;DHT22;4923;52.520;13.494;2022-11-20T13:39:10;3.20;1.00
9768;DHT22;4923;52.520;13.494;2022-11-20T13:42:00;3.10;1.00
9768;DHT22;4923;52.520;13.494;2022-11-20T13:44:50;3.20;1.00
9768;DHT22;4923;52.520;13.494;2022-11-20T13:47:47;3.20;1.00
9768;DHT22;4923;52.520;13.494;2022-11-20T13:50:49;3.00;1.00
9768;DHT22;4923;52.520;13.494;2022-11-20T13:54:09;2.80;1.00
9768;DHT22;4923;52.520;13.494;2022-11-20T13:57:16;2.90;1.00
9768;DHT22;4923;52.520;13.494;2022-11-20T14:00:13;3.10;1.00
9768;DHT22;4923;52.520;13.494;2022-11-20T14:03:09;2.90;1.00
9768;DHT22;4923;52.520;13.494;2022-11-20T14:06:02;2.80;1.00
9768;DHT22;4923;52.520;13.494;2022-11-20T14:08:50;2.80;1.00
9768;DHT22;4923;52.520;13.494;2022-11-20T14:11:46;2.80;1.00
9768;DHT22;4923;52.520;13.494;2022-11-20T14:14:35;2.80;1.00
9768;DHT22;4923;52.520;13.494;2022-11-20T14:17:30;2.60;1.00
9768;DHT22;4923;52.520;13.494;2022-11-20T14:20:18;2.60;1.00
9768;DHT22;4923;52.520;13.494;2022-11-20T14:23:10;2.60;1.00
9768;DHT22;4923;52.520;13.494;2022-11-20T14:25:57;2.60;1.00
9768;DHT22;4923;52.520;13.494;2022-11-20T14:28:48;2.40;1.00
9768;DHT22;4923;52.520;13.494;2022-11-20T14:31:38;2.40;1.00
9768;DHT22;4923;52.520;13.494;2022-11-20T14:34:29;2.30;1.00
9768;DHT22;4923;52.520;13.494;2022-11-20T14:37:20;2.10;1.00
9768;DHT22;4923;52.520;13.494;2022-11-20T14:40:26;2.00;1.00
9768;DHT22;4923;52.520;13.494;2022-11-20T14:43:20;2.00;1.00
9768;DHT22;4923;52.520;13.494;2022-11-20T14:46:09;2.00;1.00
9768;DHT22;4923;52.520;13.494;2022-11-20T14:49:01;1.70;1.00
9768;DHT22;4923;52.520;13.494;2022-11-20T14:51:59;1.70;1.00
9768;DHT22;4923;52.520;13.494;2022-11-20T14:54:47;1.60;1.00
9768;DHT22;4923;52.520;13.494;2022-11-20T14:57:35;1.50;1.00
9768;DHT22;4923;52.520;13.494;2022-11-20T15:00:24;1.60;1.00
9768;DHT22;4923;52.520;13.494;2022-11-20T15:03:15;1.60;1.00
9768;DHT22;4923;52.520;13.494;2022-11-20T15:06:07;1.60;1.00
9768;DHT22;4923;52.520;13.494;2022-11-20T15:08:56;1.70;1.00
9768;DHT22;4923;52.520;13.494;2022-11-20T15:11:53;1.80;1.00
9768;DHT22;4923;52.520;13.494;2022-11-20T15:14:40;1.80;1.00
9768;DHT22;4923;52.520;13.494;2022-11-20T15:17:28;1.90;1.00
9768;DHT22;4923;52.520;13.494;2022-11-20T15:20:16;1.90;1.00
9768;DHT22;4923;52.520;13.494;2022-11-20T15:23:11;1.90;1.00
9768;DHT22;4923;52.520;13.494;2022-11-20T15:25:58;1.90;1.00
9768;DHT22;4923;52.520;13.494;2022-11-20T15:28:46;1.90;1.00
9768;DHT22;4923;52.520;13.494;2022-11-20T15:31:35;2.00;1.00
9768;DHT22;4923;52.520;13.494;2022-11-20T15:34:23;2.00;1.00
9768;DHT22;4923;52.520;13.494;2022-11-20T15:37:10;1.90;1.00
9768;DHT22;4923;52.520;13.494;2022-11-20T15:40:01;1.90;1.00
9768;DHT22;4923;52.520;13.494;2022-11-20T15:42:49;1.90;1.00
9768;DHT22;4923;52.520;13.494;2022-11-20T15:45:56;1.90;1.00
9768;DHT22;4923;52.520;13.494;2022-11-20T15:48:48;1.90;1.00
9768;DHT22;4923;52.520;13.494;2022-11-20T15:51:37;1.80;1.00
9768;DHT22;4923;52.520;13.494;2022-11-20T15:54:25;1.80;1.00
9768;DHT22;4923;52.520;13.494;2022-11-20T15:57:14;1.80;1.00
9768;DHT22;4923;52.520;13.494;2022-11-20T16:00:02;1.70;1.00
9768;DHT22;4923;52.520;13.494;2022-11-20T16:02:50;1.70;1.00
9768;DHT22;4923;52.520;13.494;2022-11-20T16:05:37;1.80;1.00
9768;DHT22;4923;52.520;13.494;2022-11-20T16:08:24;1.80;1.00
9768;DHT22;4923;52.520;13.494;2022-11-20T16:11:12;1.70;1.00
9768;DHT22;4923;52.520;13.494;2022-11-20T16:14:02;1.60;1.00
9768;DHT22;4923;52.520;13.494;2022-11-20T16:17:07;1.50;1.00
9768;DHT22;4923;52.520;13.494;2022-11-20T16:19:54;1.40;1.00
9768;DHT22;4923;52.520;13.494;2022-11-20T16:22:41;1.20;1.00
9768;DHT22;4923;52.520;13.494;2022-11-20T16:25:28;1.20;1.00
9768;DHT22;4923;52.520;13.494;2022-11-20T16:28:16;1.00;1.00
9768;DHT22;4923;52.520;13.494;2022-11-20T16:31:09;1.00;1.00
9768;DHT22;4923;52.520;13.494;2022-11-20T16:34:07;0.90;1.00
9768;DHT22;4923;52.520;13.494;2022-11-20T16:36:54;0.80;1.00
9768;DHT22;4923;52.520;13.494;2022-11-20T16:39:41;0.70;1.00
9768;DHT22;4923;52.520;13.494;2022-11-20T16:42:31;0.70;1.00
9768;DHT22;4923;52.520;13.494;2022-11-20T16:45:19;0.60;1.00
9768;DHT22;4923;52.520;13.494;2022-11-20T16:48:11;0.60;1.00
9768;DHT22;4923;52.520;13.494;2022-11-20T16:50:59;0.50;1.00
9768;DHT22;4923;52.520;13.494;2022-11-20T16:53:46;0.50;1.00
9768;DHT22;4923;52.520;13.494;2022-11-20T16:56:35;0.50;1.00
9768;DHT22;4923;52.520;13.494;2022-11-20T16:59:24;0.40;1.00
9768;DHT22;4923;52.520;13.494;2022-11-20T17:02:11;0.40;1.00
9768;DHT22;4923;52.520;13.494;2022-11-20T17:05:00;0.40;1.00
9768;DHT22;4923;52.520;13.494;2022-11-20T17:07:49;0.50;1.00
9768;DHT22;4923;52.520;13.494;2022-11-20T17:10:36;0.60;1.00
9768;DHT22;4923;52.520;13.494;2022-11-20T17:13:22;0.60;1.00
9768;DHT22;4923;52.520;13.494;2022-11-20T17:16:12;0.70;1.00
9768;DHT22;4923;52.520;13.494;2022-11-20T17:18:59;0.80;1.00
9768;DHT22;4923;52.520;13.494;2022-11-20T17:21:47;0.90;1.00
9768;DHT22;4923;52.520;13.494;2022-11-20T17:24:34;0.90;1.00
9768;DHT22;4923;52.520;13.494;2022-11-20T17:27:21;0.90;1.00
9768;DHT22;4923;52.520;13.494;2022-11-20T17:30:08;0.90;1.00
9768;DHT22;4923;52.520;13.494;2022-11-20T17:32:55;0.80;1.00
9768;DHT22;4923;52.520;13.494;2022-11-20T17:35:42;0.80;1.00
9768;DHT22;4923;52.520;13.494;2022-11-20T17:38:31;0.90;1.00
9768;DHT22;4923;52.520;13.494;2022-11-20T17:41:20;1.00;1.00
9768;DHT22;4923;52.520;13.494;2022-11-20T17:44:09;1.00;1.00
9768;DHT22;4923;52.520;13.494;2022-11-20T17:46:56;1.10;1.00
9768;DHT22;4923;52.520;13.494;2022-11-20T17:49:43;1.20;1.00
9768;DHT22;4923;52.520;13.494;2022-11-20T17:52:29;1.30;1.00
9768;DHT22;4923;52.520;13.494;2022-11-20T17:55:18;1.30;1.00
9768;DHT22;4923;52.520;13.494;2022-11-20T17:58:05;1.40;1.00
9768;DHT22;4923;52.520;13.494;2022-11-20T18:00:51;1.40;1.00
9768;DHT22;4923;52.520;13.494;2022-11-20T18:03:38;1.40;1.00
9768;DHT22;4923;52.520;13.494;2022-11-20T18:06:27;1.50;1.00
9768;DHT22;4923;52.520;13.494;2022-11-20T18:09:14;1.50;1.00
9768;DHT22;4923;52.520;13.494;2022-11-20T18:12:03;1.60;1.00
9768;DHT22;4923;52.520;13.494;2022-11-20T18:14:50;1.60;1.00
9768;DHT22;4923;52.520;13.494;2022-11-20T18:17:37;1.60;1.00
9768;DHT22;4923;52.520;13.494;2022-11-20T18:20:24;1.60;1.00
9768;DHT22;4923;52.520;13.494;2022-11-20T18:23:11;1.60;1.00
9768;DHT22;4923;52.520;13.494;2022-11-20T18:25:58;1.70;1.00
9768;DHT22;4923;52.520;13.494;2022-11-20T18:28:47;1.70;1.00
9768;DHT22;4923;52.520;13.494;2022-11-20T18:31:34;1.80;1.00
9768;DHT22;4923;52.520;13.494;2022-11-20T18:34:21;1.80;1.00
9768;DHT22;4923;52.520;13.494;2022-11-20T18:37:08;1.80;1.00
9768;DHT22;4923;52.520;13.494;2022-11-20T18:39:55;1.80;1.00
9768;DHT22;4923;52.520;13.494;2022-11-20T18:42:42;1.80;1.00
9768;DHT22;4923;52.520;13.494;2022-11-20T18:45:47;1.70;1.00
9768;DHT22;4923;52.520;13.494;2022-11-20T18:48:37;1.70;1.00